Andrus Island, California
Current Conditions -  °F | °C
As of 4:58 AM on Friday 19 Dec 2014 (Local Time) from KSUU Reporting Station
Clear Clear  
Wind Chill: 51°   Ceiling: Unl
Heat Index: 51°   Visibility: 10mi
Dew Point: 49°   Wind: 5mph
Humidity: 92%   Direction: 140°SE
Pressure: 30.12"   Gusts: NA
Location:  38.1457°N, 121.624°W
Report Text: KSUU 191258Z AUTO 14004KT 10SM CLR 11/10 A3012 RMK AO2 DZE13DZB15E26 CIG 022 RWY03R SLP206 P0001 T01080095 $
Loading
Personal Weather Stations






























Interactive Weather Map New forecast layout! Learn more

10-Day Weather Forecast

Advertisements
Track Severe Weather on mobile